createdAt,value
2017-04-05T00:00:49.318Z,8.30
2017-04-05T00:01:49.337Z,8.20
2017-04-05T00:02:50.017Z,8.20
2017-04-05T00:03:50.843Z,8.20
2017-04-05T00:04:51.637Z,8.20
2017-04-05T00:05:51.604Z,8.20
2017-04-05T00:06:51.545Z,8.20
2017-04-05T00:07:51.572Z,8.20
2017-04-05T00:08:52.691Z,8.20
2017-04-05T00:09:52.435Z,8.20
2017-04-05T00:10:52.401Z,8.20
2017-04-05T00:11:52.424Z,8.20
2017-04-05T00:12:53.131Z,8.20
2017-04-05T00:13:53.367Z,8.20
2017-04-05T00:14:54.104Z,8.20
2017-04-05T00:15:54.188Z,8.20
2017-04-05T00:16:54.205Z,8.20
2017-04-05T00:17:54.187Z,8.20
2017-04-05T00:18:54.483Z,8.20
2017-04-05T00:19:54.212Z,8.20
2017-04-05T00:20:53.948Z,8.20
2017-04-05T00:21:54.002Z,8.20
2017-04-05T00:22:54.005Z,8.20
2017-04-05T00:23:54.389Z,8.20
2017-04-05T00:24:54.339Z,8.20
2017-04-05T00:25:55.061Z,8.20
2017-04-05T00:26:55.791Z,8.20
2017-04-05T00:27:55.737Z,8.20
2017-04-05T00:28:56.080Z,8.20
2017-04-05T00:29:56.139Z,8.20
2017-04-05T00:30:56.163Z,8.20
2017-04-05T00:31:56.128Z,8.20
2017-04-05T00:32:56.827Z,8.20
2017-04-05T00:33:57.225Z,8.20
2017-04-05T00:34:57.276Z,8.20
2017-04-05T00:35:57.263Z,8.20
2017-04-05T00:36:57.288Z,8.20
2017-04-05T00:37:58.007Z,8.20
2017-04-05T00:38:59.076Z,8.20
2017-04-05T00:39:59.064Z,8.20
2017-04-05T00:40:59.031Z,8.20
2017-04-05T00:41:58.999Z,8.20
2017-04-05T00:42:58.760Z,8.20
2017-04-05T00:44:02.025Z,8.20
2017-04-05T00:45:02.018Z,8.20
2017-04-05T00:46:02.079Z,8.20
2017-04-05T00:47:02.047Z,8.20
2017-04-05T00:48:02.128Z,8.20
2017-04-05T00:49:02.174Z,8.20
2017-04-05T00:50:02.146Z,8.20
2017-04-05T00:52:32.860Z,8.20
2017-04-05T00:53:32.833Z,8.20
2017-04-05T00:54:32.835Z,8.20
2017-04-05T00:55:32.790Z,8.20
2017-04-05T00:56:32.761Z,8.20
2017-04-05T00:57:32.748Z,8.20
2017-04-05T00:58:32.742Z,8.20
2017-04-05T00:59:33.755Z,8.20
2017-04-05T01:00:33.793Z,8.20
2017-04-05T01:01:33.826Z,8.20
2017-04-05T01:02:33.890Z,8.20
2017-04-05T01:03:34.595Z,8.20
2017-04-05T01:04:34.986Z,8.20
2017-04-05T01:05:34.964Z,8.20
2017-04-05T01:06:34.678Z,8.20
2017-04-05T01:07:34.777Z,8.20
2017-04-05T01:08:34.762Z,8.30
2017-04-05T01:09:35.082Z,8.30
2017-04-05T01:10:35.127Z,8.20
2017-04-05T01:11:35.097Z,8.20
2017-04-05T01:12:35.198Z,8.20
2017-04-05T01:13:35.130Z,8.20
2017-04-05T01:14:35.297Z,8.20
2017-04-05T01:15:35.989Z,8.20
2017-04-05T01:16:35.994Z,8.20
2017-04-05T01:17:35.982Z,8.20
2017-04-05T01:18:35.953Z,8.30
2017-04-05T01:19:36.358Z,8.20
2017-04-05T01:20:36.378Z,8.20
2017-04-05T01:21:36.354Z,8.20
2017-04-05T01:22:37.073Z,8.20
2017-04-05T01:23:37.966Z,8.20
2017-04-05T01:24:38.329Z,8.20
2017-04-05T01:25:39.044Z,8.20
2017-04-05T01:26:38.996Z,8.20
2017-04-05T01:27:38.961Z,8.20
2017-04-05T01:28:39.630Z,8.20
2017-04-05T01:29:40.182Z,8.30
2017-04-05T01:30:39.917Z,8.20
2017-04-05T01:31:39.888Z,8.30
2017-04-05T01:32:39.910Z,8.30
2017-04-05T01:33:40.637Z,8.30
2017-04-05T01:34:41.656Z,8.30
2017-04-05T01:35:42.431Z,8.30
2017-04-05T01:36:42.383Z,8.20
2017-04-05T01:37:43.177Z,8.20
2017-04-05T01:38:43.102Z,8.20
2017-04-05T01:39:43.095Z,8.20
2017-04-05T01:40:43.832Z,8.10
2017-04-05T01:41:43.900Z,8.20
2017-04-05T01:42:43.926Z,8.10
2017-04-05T01:43:43.958Z,8.10
2017-04-05T01:44:44.257Z,8.10
2017-04-05T01:45:44.196Z,8.10
2017-04-05T01:46:44.873Z,8.00
2017-04-05T01:47:44.880Z,8.10
2017-04-05T01:48:44.903Z,8.10
2017-04-05T01:49:45.202Z,8.00
2017-04-05T01:50:45.242Z,8.10
2017-04-05T01:51:45.761Z,8.10
2017-04-05T01:52:46.446Z,8.10
2017-04-05T01:53:46.531Z,8.10
2017-04-05T01:54:46.830Z,8.10
2017-04-05T01:55:46.823Z,8.10
2017-04-05T01:56:46.858Z,8.10
2017-04-05T01:57:47.552Z,8.10
2017-04-05T01:58:47.603Z,8.10
2017-04-05T01:59:47.963Z,8.10
2017-04-05T02:01:48.915Z,8.10
2017-04-05T02:02:48.861Z,8.10
2017-04-05T02:03:48.915Z,8.10
2017-04-05T02:04:49.218Z,8.10
2017-04-05T02:05:49.928Z,8.10
2017-04-05T02:06:49.889Z,8.10
2017-04-05T02:07:49.830Z,8.10
2017-04-05T02:08:49.817Z,8.10
2017-04-05T02:09:50.108Z,8.10
2017-04-05T02:10:50.106Z,8.10
2017-04-05T02:11:50.089Z,8.10
2017-04-05T02:12:50.846Z,8.10
2017-04-05T02:13:51.220Z,8.10
2017-04-05T02:14:52.249Z,8.10
2017-04-05T02:15:52.945Z,8.10
2017-04-05T02:16:53.078Z,8.10
2017-04-05T02:17:53.776Z,8.10
2017-04-05T02:18:53.784Z,8.10
2017-04-05T02:19:54.091Z,8.10
2017-04-05T02:20:54.108Z,8.10
2017-04-05T02:21:54.106Z,8.10
2017-04-05T02:22:54.181Z,8.10
2017-04-05T02:23:54.119Z,8.10
2017-04-05T02:24:54.448Z,8.10
2017-04-05T02:25:55.235Z,8.10
2017-04-05T02:26:55.215Z,8.10
2017-04-05T02:27:55.228Z,8.10
2017-04-05T02:28:55.207Z,8.10
2017-04-05T02:29:56.813Z,8.10
2017-04-05T02:30:56.767Z,8.10
2017-04-05T02:31:56.731Z,8.10
2017-04-05T02:32:56.664Z,8.20
2017-04-05T02:33:57.367Z,8.20
2017-04-05T02:34:58.514Z,8.20
2017-04-05T02:35:59.034Z,8.20
2017-04-05T02:36:59.817Z,8.20
2017-04-05T02:37:59.723Z,8.20
2017-04-05T02:38:59.734Z,8.20
2017-04-05T02:40:00.104Z,8.20
2017-04-05T02:41:00.087Z,8.20
2017-04-05T02:42:00.859Z,8.20
2017-04-05T02:43:00.793Z,8.30
2017-04-05T02:44:00.758Z,8.30
2017-04-05T02:45:01.086Z,8.20
2017-04-05T02:46:01.065Z,8.30
2017-04-05T02:47:01.069Z,8.30
2017-04-05T02:48:01.057Z,8.30
2017-04-05T02:49:01.743Z,8.30
2017-04-05T02:50:02.054Z,8.30
2017-04-05T02:51:02.045Z,8.30
2017-04-05T02:52:02.099Z,8.30
2017-04-05T02:53:02.858Z,8.30
2017-04-05T02:54:02.813Z,8.20
2017-04-05T02:55:03.656Z,8.20
2017-04-05T02:56:03.596Z,8.30
2017-04-05T02:57:03.554Z,8.20
2017-04-05T02:58:03.521Z,8.30
2017-04-05T02:59:03.578Z,8.20
2017-04-05T03:00:04.666Z,8.30
2017-04-05T03:01:04.716Z,8.30
2017-04-05T03:02:04.739Z,8.30
2017-04-05T03:03:04.692Z,8.30
2017-04-05T03:04:04.669Z,8.30
2017-04-05T03:05:04.996Z,8.30
2017-04-05T03:06:04.985Z,8.30
2017-04-05T03:07:04.928Z,8.30
2017-04-05T03:08:04.950Z,8.30
2017-04-05T03:09:05.954Z,8.30
2017-04-05T03:10:06.302Z,8.30
2017-04-05T03:11:07.000Z,8.30
2017-04-05T03:12:06.969Z,8.20
2017-04-05T03:13:06.970Z,8.30
2017-04-05T03:14:06.955Z,8.20
2017-04-05T03:15:07.250Z,8.20
2017-04-05T03:16:08.015Z,8.20
2017-04-05T03:17:07.982Z,8.20
2017-04-05T03:18:08.713Z,8.20
2017-04-05T03:19:08.719Z,8.20
2017-04-05T03:20:12.150Z,8.20
2017-04-05T03:21:12.107Z,8.20
2017-04-05T03:22:12.842Z,8.20
2017-04-05T03:23:20.839Z,8.20
2017-04-05T03:24:20.905Z,8.20
2017-04-05T03:25:21.312Z,8.20
2017-04-05T03:26:21.321Z,8.20
2017-04-05T03:27:21.304Z,8.20
2017-04-05T03:28:21.268Z,8.20
2017-04-05T03:29:21.950Z,8.20
2017-04-05T03:30:22.249Z,8.20
2017-04-05T03:31:22.197Z,8.20
2017-04-05T03:32:22.211Z,8.20
2017-04-05T03:33:22.993Z,8.20
2017-04-05T03:34:22.960Z,8.20
2017-04-05T03:35:23.381Z,8.20
2017-04-05T03:36:23.421Z,8.20
2017-04-05T03:37:23.445Z,8.20
2017-04-05T03:38:23.475Z,8.30
2017-04-05T03:39:23.940Z,8.20
2017-04-05T03:40:23.944Z,8.20
2017-04-05T03:41:24.765Z,8.20
2017-04-05T03:42:24.739Z,8.20
2017-04-05T03:43:24.746Z,8.20
2017-04-05T03:44:24.807Z,8.20
2017-04-05T03:45:25.186Z,8.20
2017-04-05T03:46:25.191Z,8.20
2017-04-05T03:47:25.192Z,8.20
2017-04-05T03:48:24.968Z,8.20
2017-04-05T03:49:24.984Z,8.10
2017-04-05T03:50:25.391Z,8.20
2017-04-05T03:51:26.098Z,8.10
2017-04-05T03:52:26.244Z,8.20
2017-04-05T03:53:26.228Z,8.20
2017-04-05T03:54:26.987Z,8.10
2017-04-05T03:55:27.163Z,8.10
2017-04-05T03:56:27.148Z,8.10
2017-04-05T03:57:27.205Z,8.20
2017-04-05T03:58:27.108Z,8.10
2017-04-05T03:59:27.057Z,8.10
2017-04-05T04:00:28.139Z,8.10
2017-04-05T04:01:28.141Z,8.20
2017-04-05T04:02:28.114Z,8.20
2017-04-05T04:03:28.832Z,8.10
2017-04-05T04:04:28.781Z,8.20
2017-04-05T04:05:28.800Z,8.20
2017-04-05T04:06:28.779Z,8.10
2017-04-05T04:07:28.750Z,8.20
2017-04-05T04:08:28.707Z,8.20
2017-04-05T04:09:28.474Z,8.20
2017-04-05T04:10:29.504Z,8.20
2017-04-05T04:11:29.534Z,8.20
2017-04-05T04:12:29.544Z,8.20
2017-04-05T04:13:29.468Z,8.20
2017-04-05T04:14:29.417Z,8.20
2017-04-05T04:15:30.419Z,8.20
2017-04-05T04:16:30.361Z,8.20
2017-04-05T04:17:31.109Z,8.20
2017-04-05T04:18:31.063Z,8.20
2017-04-05T04:19:31.032Z,8.20
2017-04-05T04:20:31.375Z,8.20
2017-04-05T04:21:31.341Z,8.20
2017-04-05T04:22:31.374Z,8.20
2017-04-05T04:23:31.335Z,8.20
2017-04-05T04:24:31.293Z,8.20
2017-04-05T04:25:31.549Z,8.20
2017-04-05T04:26:32.310Z,8.20
2017-04-05T04:27:32.278Z,8.20
2017-04-05T04:28:32.220Z,8.20
2017-04-05T04:29:32.214Z,8.20
2017-04-05T04:30:32.470Z,8.20
2017-04-05T04:31:32.455Z,8.10
2017-04-05T04:32:32.458Z,8.10
2017-04-05T04:33:32.363Z,8.10
2017-04-05T04:34:32.281Z,8.10
2017-04-05T04:35:32.631Z,8.10
2017-04-05T04:36:33.312Z,8.00
2017-04-05T04:37:33.305Z,8.00
2017-04-05T04:38:33.286Z,8.00
2017-04-05T04:39:33.261Z,8.00
2017-04-05T04:40:33.518Z,8.00
2017-04-05T04:41:33.472Z,8.00
2017-04-05T04:42:34.196Z,8.00
2017-04-05T04:43:34.923Z,8.00
2017-04-05T04:44:35.617Z,8.00
2017-04-05T04:45:35.858Z,8.00
2017-04-05T04:46:35.909Z,8.00
2017-04-05T04:47:35.588Z,8.10
2017-04-05T04:48:36.671Z,8.10
2017-04-05T04:49:36.769Z,8.30
2017-04-05T04:50:37.217Z,8.50
2017-04-05T04:51:37.946Z,8.60
2017-04-05T04:52:38.645Z,8.70
2017-04-05T04:53:38.822Z,8.90
2017-04-05T04:54:40.218Z,9.00
2017-04-05T04:55:41.455Z,9.10
2017-04-05T04:57:41.583Z,9.20
2017-04-05T04:58:41.534Z,9.20
2017-04-05T04:59:41.523Z,9.30
2017-04-05T05:00:41.835Z,9.30
2017-04-05T05:01:41.919Z,9.50
2017-04-05T05:02:41.871Z,9.60
2017-04-05T05:03:41.825Z,9.80
2017-04-05T05:04:41.756Z,10.00
2017-04-05T05:05:42.121Z,10.20
2017-04-05T05:06:42.772Z,10.40
2017-04-05T05:07:42.742Z,10.60
2017-04-05T05:08:42.756Z,10.70
2017-04-05T05:09:43.965Z,10.90
2017-04-05T05:10:44.400Z,11.00
2017-04-05T05:11:45.185Z,11.20
2017-04-05T05:12:45.156Z,11.30
2017-04-05T05:13:45.144Z,11.40
2017-04-05T05:14:45.917Z,11.40
2017-04-05T05:15:46.244Z,11.60
2017-04-05T05:16:46.243Z,11.70
2017-04-05T05:17:46.148Z,11.80
2017-04-05T05:18:46.113Z,11.90
2017-04-05T05:19:46.098Z,12.00
2017-04-05T05:20:47.202Z,12.10
2017-04-05T05:21:47.215Z,12.10
2017-04-05T05:22:47.159Z,12.10
2017-04-05T05:23:47.205Z,11.90
2017-04-05T05:24:47.178Z,11.80
2017-04-05T05:25:47.470Z,11.60
2017-04-05T05:26:48.311Z,11.50
2017-04-05T05:27:48.265Z,11.30
2017-04-05T05:28:48.034Z,11.20
2017-04-05T05:29:47.905Z,11.00
2017-04-05T05:30:48.178Z,10.90
2017-04-05T05:31:48.173Z,10.80
2017-04-05T05:32:48.174Z,10.70
2017-04-05T05:33:48.179Z,10.60
2017-04-05T05:34:48.241Z,10.50
2017-04-05T05:35:49.309Z,10.40
2017-04-05T05:36:49.259Z,10.40
2017-04-05T05:37:49.200Z,10.30
2017-04-05T05:38:49.174Z,10.20
2017-04-05T05:39:49.869Z,10.10
2017-04-05T05:40:50.201Z,10.10
2017-04-05T05:41:50.127Z,9.90
2017-04-05T05:42:50.869Z,9.90
2017-04-05T05:43:50.837Z,9.80
2017-04-05T05:44:50.768Z,9.80
2017-04-05T05:45:51.043Z,9.70
2017-04-05T05:46:50.991Z,9.70
2017-04-05T05:47:50.766Z,9.60
2017-04-05T05:48:50.660Z,9.60
2017-04-05T05:49:50.632Z,9.60
2017-04-05T05:50:51.064Z,9.60
2017-04-05T05:51:51.059Z,9.60
2017-04-05T05:52:51.014Z,9.50
2017-04-05T05:53:51.731Z,9.50
2017-04-05T05:54:52.445Z,9.50
2017-04-05T05:55:53.450Z,9.50
2017-04-05T05:56:53.502Z,9.50
2017-04-05T05:57:53.244Z,9.40
2017-04-05T05:58:53.345Z,9.40
2017-04-05T05:59:53.322Z,9.40
2017-04-05T06:00:53.592Z,9.40
2017-04-05T06:01:53.574Z,9.40
2017-04-05T06:02:53.507Z,9.40
2017-04-05T06:03:53.447Z,9.40
2017-04-05T06:04:53.233Z,9.40
2017-04-05T06:05:54.246Z,9.30
2017-04-05T06:06:54.222Z,9.40
2017-04-05T06:07:54.169Z,9.40
2017-04-05T06:08:54.940Z,9.40
2017-04-05T06:09:54.946Z,9.40
2017-04-05T06:10:55.404Z,9.40
2017-04-05T06:11:56.199Z,9.40
2017-04-05T06:12:56.160Z,9.40
2017-04-05T06:13:56.057Z,9.40
2017-04-05T06:14:56.849Z,9.40
2017-04-05T06:15:57.154Z,9.50
2017-04-05T06:16:57.193Z,9.50
2017-04-05T06:17:57.901Z,9.50
2017-04-05T06:18:57.876Z,9.50
2017-04-05T06:19:57.853Z,9.60
2017-04-05T06:20:58.208Z,9.70
2017-04-05T06:21:58.153Z,9.80
2017-04-05T06:22:58.843Z,9.90
2017-04-05T06:23:58.799Z,10.00
2017-04-05T06:24:58.777Z,10.20
2017-04-05T06:25:59.880Z,10.30
2017-04-05T06:26:59.952Z,10.40
2017-04-05T06:27:59.902Z,10.50
2017-04-05T06:28:59.902Z,10.60
2017-04-05T06:29:59.631Z,10.70
2017-04-05T06:31:00.008Z,10.80
2017-04-05T06:31:59.960Z,10.80
2017-04-05T06:32:59.958Z,10.90
2017-04-05T06:34:00.615Z,11.00
2017-04-05T06:35:00.583Z,11.00
2017-04-05T06:36:00.979Z,11.00
2017-04-05T06:37:01.001Z,11.10
2017-04-05T06:38:01.658Z,11.10
2017-04-05T06:39:01.651Z,11.10
2017-04-05T06:40:01.356Z,11.10
2017-04-05T06:41:01.670Z,11.10
2017-04-05T06:42:01.607Z,11.00
2017-04-05T06:43:02.261Z,11.00
2017-04-05T06:44:02.965Z,10.90
2017-04-05T06:45:02.918Z,10.80
2017-04-05T06:46:03.188Z,10.70
2017-04-05T06:47:03.315Z,10.60
2017-04-05T06:48:04.007Z,10.50
2017-04-05T06:49:04.002Z,10.50
2017-04-05T06:50:04.059Z,10.50
2017-04-05T06:51:04.328Z,10.40
2017-04-05T06:52:04.361Z,10.40
2017-04-05T06:53:05.155Z,10.30
2017-04-05T06:54:05.117Z,10.30
2017-04-05T06:55:05.199Z,10.30
2017-04-05T06:56:05.619Z,10.20
2017-04-05T06:57:06.315Z,10.20
2017-04-05T06:58:06.376Z,10.20
2017-04-05T06:59:06.448Z,10.10
2017-04-05T07:00:07.148Z,10.10
2017-04-05T07:01:07.575Z,10.10
2017-04-05T07:02:07.569Z,10.10
2017-04-05T07:03:08.734Z,10.10
2017-04-05T07:04:08.859Z,10.10
2017-04-05T07:05:09.062Z,10.00
2017-04-05T07:06:09.439Z,10.00
2017-04-05T07:07:09.461Z,10.00
2017-04-05T07:08:10.271Z,9.90
2017-04-05T07:09:10.327Z,10.00
2017-04-05T07:10:10.302Z,10.00
2017-04-05T07:11:11.425Z,10.00
2017-04-05T07:12:11.176Z,10.00
2017-04-05T07:13:10.962Z,10.00
2017-04-05T07:14:10.823Z,10.00
2017-04-05T07:15:10.815Z,10.00
2017-04-05T07:16:10.797Z,10.00
2017-04-05T07:17:11.215Z,10.00
2017-04-05T07:18:11.200Z,10.00
2017-04-05T07:19:11.194Z,10.00
2017-04-05T07:20:11.119Z,10.00
2017-04-05T07:21:11.153Z,10.00
2017-04-05T07:22:11.445Z,10.10
2017-04-05T07:23:11.507Z,10.10
2017-04-05T07:24:12.249Z,10.10
2017-04-05T07:25:12.241Z,10.10
2017-04-05T07:26:12.750Z,10.00
2017-04-05T07:27:12.911Z,10.10
2017-04-05T07:28:12.914Z,10.10
2017-04-05T07:29:12.851Z,10.10
2017-04-05T07:30:12.824Z,10.10
2017-04-05T07:31:12.824Z,10.10
2017-04-05T07:32:13.062Z,10.10
2017-04-05T07:33:13.096Z,10.10
2017-04-05T07:34:13.129Z,10.10
2017-04-05T07:35:13.933Z,10.10
2017-04-05T07:36:13.922Z,10.10
2017-04-05T07:37:14.245Z,10.10
2017-04-05T07:38:14.234Z,10.10
2017-04-05T07:39:14.169Z,10.10
2017-04-05T07:40:14.963Z,10.00
2017-04-05T07:41:14.977Z,10.00
2017-04-05T07:42:15.422Z,10.00
2017-04-05T07:43:16.150Z,9.90
2017-04-05T07:44:16.826Z,9.90
2017-04-05T07:45:16.830Z,9.90
2017-04-05T07:46:16.897Z,9.90
2017-04-05T07:47:17.382Z,9.90
2017-04-05T07:48:17.379Z,9.90
2017-04-05T07:49:17.108Z,10.00
2017-04-05T07:50:17.922Z,10.00
2017-04-05T07:51:18.614Z,10.00
2017-04-05T07:52:18.909Z,10.10
2017-04-05T07:53:18.676Z,10.10
2017-04-05T07:54:18.689Z,10.20
2017-04-05T07:55:18.644Z,10.20
2017-04-05T07:56:18.625Z,10.20
2017-04-05T07:57:18.764Z,10.20
2017-04-05T07:58:19.505Z,10.20
2017-04-05T07:59:20.210Z,10.20
2017-04-05T08:00:20.177Z,10.20
2017-04-05T08:01:20.145Z,10.20
2017-04-05T08:02:20.976Z,10.20
2017-04-05T08:04:21.089Z,10.30
2017-04-05T08:05:21.604Z,10.30
2017-04-05T08:06:21.623Z,10.30
2017-04-05T08:07:22.007Z,10.40
2017-04-05T08:08:21.987Z,10.40
2017-04-05T08:09:21.996Z,10.30
2017-04-05T08:10:22.050Z,10.30
2017-04-05T08:11:22.725Z,10.30
2017-04-05T08:12:23.174Z,10.30
2017-04-05T08:13:26.958Z,10.30
2017-04-05T08:14:26.791Z,10.30
2017-04-05T08:15:26.922Z,10.40
2017-04-05T08:16:26.977Z,10.40
2017-04-05T08:17:28.053Z,10.50
2017-04-05T08:18:28.116Z,10.50
2017-04-05T08:19:28.185Z,10.50
2017-04-05T08:20:28.145Z,10.60
2017-04-05T08:21:28.975Z,10.60
2017-04-05T08:22:30.078Z,10.60
2017-04-05T08:23:30.082Z,10.60
2017-04-05T08:25:30.189Z,10.60
2017-04-05T08:26:30.262Z,10.60
2017-04-05T08:27:31.133Z,10.60
2017-04-05T08:28:31.107Z,10.60
2017-04-05T08:29:31.381Z,10.60
2017-04-05T08:30:31.385Z,10.70
2017-04-05T08:31:32.118Z,10.70
2017-04-05T08:32:32.393Z,10.70
2017-04-05T08:33:32.407Z,10.80
2017-04-05T08:34:32.372Z,10.80
2017-04-05T08:35:32.394Z,10.90
2017-04-05T08:36:32.439Z,10.90
2017-04-05T08:37:33.459Z,10.90
2017-04-05T08:38:33.410Z,11.00
2017-04-05T08:39:33.399Z,11.00
2017-04-05T08:40:33.399Z,11.00
2017-04-05T08:41:33.461Z,11.00
2017-04-05T08:42:33.732Z,11.00
2017-04-05T08:43:33.696Z,11.00
2017-04-05T08:44:33.735Z,11.00
2017-04-05T08:45:33.723Z,11.00
2017-04-05T08:46:34.419Z,11.00
2017-04-05T08:47:34.736Z,11.00
2017-04-05T08:48:35.425Z,11.00
2017-04-05T08:49:35.387Z,11.00
2017-04-05T08:50:36.110Z,11.10
2017-04-05T08:51:36.743Z,11.20
2017-04-05T08:52:37.222Z,11.20
2017-04-05T08:53:37.248Z,11.20
2017-04-05T08:54:37.739Z,11.20
2017-04-05T08:55:38.479Z,11.30
2017-04-05T08:56:38.304Z,11.30
2017-04-05T08:57:39.409Z,11.40
2017-04-05T08:58:40.129Z,11.30
2017-04-05T08:59:40.197Z,11.40
2017-04-05T09:00:40.253Z,11.40
2017-04-05T09:01:40.265Z,11.40
2017-04-05T09:02:41.397Z,11.40
2017-04-05T09:03:41.929Z,11.40
2017-04-05T09:04:42.855Z,11.40
2017-04-05T09:05:43.615Z,11.40
2017-04-05T09:06:43.600Z,11.40
2017-04-05T09:07:43.797Z,11.40
2017-04-05T09:08:44.474Z,11.40
2017-04-05T09:09:44.449Z,11.40
2017-04-05T09:10:44.416Z,11.50
2017-04-05T09:11:45.128Z,11.50
2017-04-05T09:12:46.081Z,11.50
2017-04-05T09:13:46.793Z,11.50
2017-04-05T09:14:46.815Z,11.50
2017-04-05T09:15:47.617Z,11.50
2017-04-05T09:16:48.337Z,11.50
2017-04-05T09:17:48.643Z,11.40
2017-04-05T09:18:48.591Z,11.30
2017-04-05T09:19:48.605Z,11.30
2017-04-05T09:20:48.640Z,11.30
2017-04-05T09:21:48.664Z,11.20
2017-04-05T09:22:49.093Z,11.20
2017-04-05T09:23:49.868Z,11.20
2017-04-05T09:24:49.911Z,11.20
2017-04-05T09:25:50.007Z,11.30
2017-04-05T09:26:50.020Z,11.30
2017-04-05T09:27:50.016Z,11.30
2017-04-05T09:28:50.850Z,11.30
2017-04-05T09:29:50.854Z,11.40
2017-04-05T09:31:51.063Z,11.50
2017-04-05T09:32:51.391Z,11.50
2017-04-05T09:33:51.345Z,11.50
2017-04-05T09:34:51.377Z,11.50
2017-04-05T09:35:51.434Z,11.50
2017-04-05T09:36:52.209Z,11.60
2017-04-05T09:37:52.551Z,11.60
2017-04-05T09:38:52.573Z,11.60
2017-04-05T09:39:53.368Z,11.60
2017-04-05T09:40:53.369Z,11.60
2017-04-05T09:41:53.381Z,11.60
2017-04-05T09:42:53.807Z,11.60
2017-04-05T09:43:53.551Z,11.60
2017-04-05T09:44:53.579Z,11.60
2017-04-05T09:45:53.563Z,11.60
2017-04-05T09:46:53.570Z,11.60
2017-04-05T09:47:53.945Z,11.50
2017-04-05T09:48:53.982Z,11.50
2017-04-05T09:49:54.692Z,11.50
2017-04-05T09:50:55.402Z,11.50
2017-04-05T09:52:02.785Z,11.50
2017-04-05T09:53:03.849Z,11.50
2017-04-05T09:54:03.832Z,11.50
2017-04-05T09:55:04.619Z,11.50
2017-04-05T09:56:04.595Z,11.50
2017-04-05T09:57:04.647Z,11.60
2017-04-05T09:58:05.078Z,11.70
2017-04-05T09:59:05.863Z,11.70
2017-04-05T10:00:05.948Z,11.80
2017-04-05T10:01:05.959Z,11.90
2017-04-05T10:02:06.648Z,11.90
2017-04-05T10:03:07.759Z,11.90
2017-04-05T10:04:07.729Z,12.00
2017-04-05T10:05:07.732Z,12.10
2017-04-05T10:06:07.736Z,12.10
2017-04-05T10:07:07.732Z,12.20
2017-04-05T10:08:08.199Z,12.30
2017-04-05T10:09:08.261Z,12.40
2017-04-05T10:10:09.039Z,12.40
2017-04-05T10:11:09.013Z,12.50
2017-04-05T10:12:09.022Z,12.60
2017-04-05T10:13:09.103Z,12.60
2017-04-05T10:14:09.079Z,12.60
2017-04-05T10:15:09.822Z,12.70
2017-04-05T10:16:10.720Z,12.70
2017-04-05T10:17:11.475Z,12.70
2017-04-05T10:18:11.777Z,12.80
2017-04-05T10:19:13.205Z,12.90
2017-04-05T10:20:14.006Z,12.90
2017-04-05T10:21:13.916Z,12.90
2017-04-05T10:22:14.990Z,12.90
2017-04-05T10:23:15.317Z,12.90
2017-04-05T10:24:15.355Z,13.00
2017-04-05T10:25:15.331Z,13.00
2017-04-05T10:26:15.349Z,13.00
2017-04-05T10:27:15.354Z,13.10
2017-04-05T10:28:15.684Z,13.10
2017-04-05T10:29:15.639Z,13.10
2017-04-05T10:30:15.646Z,13.10
2017-04-05T10:31:15.610Z,13.10
2017-04-05T10:32:16.464Z,13.10
2017-04-05T10:33:16.852Z,13.20
2017-04-05T10:34:17.562Z,13.20
2017-04-05T10:35:17.566Z,13.20
2017-04-05T10:36:17.566Z,13.30
2017-04-05T10:37:17.526Z,13.30
2017-04-05T10:38:17.903Z,13.30
2017-04-05T10:39:18.199Z,13.30
2017-04-05T10:40:18.227Z,13.30
2017-04-05T10:41:18.185Z,13.30
2017-04-05T10:42:18.156Z,13.30
2017-04-05T10:43:18.529Z,13.30
2017-04-05T10:44:18.473Z,13.30
2017-04-05T10:45:19.181Z,13.30
2017-04-05T10:46:20.056Z,13.30
2017-04-05T10:47:20.070Z,13.30
2017-04-05T10:48:20.421Z,13.30
2017-04-05T10:49:20.408Z,13.30
2017-04-05T10:50:20.356Z,13.40
2017-04-05T10:51:21.135Z,13.50
2017-04-05T10:52:21.104Z,13.50
2017-04-05T10:53:21.385Z,13.60
2017-04-05T10:54:21.915Z,13.60
2017-04-05T10:55:22.609Z,13.60
2017-04-05T10:56:22.626Z,13.70
2017-04-05T10:57:23.165Z,13.70
2017-04-05T10:58:24.786Z,13.70
2017-04-05T10:59:24.823Z,13.80
2017-04-05T11:00:25.453Z,13.80
2017-04-05T11:01:25.397Z,13.90
2017-04-05T11:02:25.814Z,14.00
2017-04-05T11:03:26.141Z,14.10
2017-04-05T11:04:26.166Z,14.20
2017-04-05T11:05:26.926Z,14.30
2017-04-05T11:06:27.227Z,14.40
2017-04-05T11:07:27.213Z,14.60
2017-04-05T11:08:28.320Z,14.60
2017-04-05T11:09:28.310Z,14.70
2017-04-05T11:10:29.586Z,14.70
2017-04-05T11:11:29.799Z,14.70
2017-04-05T11:12:30.548Z,14.60
2017-04-05T11:13:30.940Z,14.60
2017-04-05T11:14:31.669Z,14.60
2017-04-05T11:15:31.670Z,14.60
2017-04-05T11:16:31.708Z,14.60
2017-04-05T11:17:31.642Z,14.60
2017-04-05T11:18:31.917Z,14.60
2017-04-05T11:19:31.901Z,14.60
2017-04-05T11:20:32.606Z,14.60
2017-04-05T11:21:33.402Z,14.50
2017-04-05T11:22:33.392Z,14.60
2017-04-05T11:23:34.553Z,14.60
2017-04-05T11:24:34.386Z,14.70
2017-04-05T11:25:34.904Z,14.70
2017-04-05T11:26:35.587Z,14.80
2017-04-05T11:27:35.528Z,14.90
2017-04-05T11:28:36.355Z,14.80
2017-04-05T11:29:37.152Z,14.90
2017-04-05T11:30:37.890Z,14.90
2017-04-05T11:31:38.574Z,14.90
2017-04-05T11:32:38.634Z,15.00
2017-04-05T11:33:39.741Z,15.00
2017-04-05T11:34:39.679Z,15.20
2017-04-05T11:35:39.662Z,15.30
2017-04-05T11:36:40.406Z,15.30
2017-04-05T11:37:40.416Z,15.50
2017-04-05T11:38:40.807Z,15.50
2017-04-05T11:39:41.535Z,15.60
2017-04-05T11:40:42.281Z,15.60
2017-04-05T11:41:42.332Z,15.70
2017-04-05T11:42:42.315Z,15.80
2017-04-05T11:43:42.568Z,15.90
2017-04-05T11:44:42.550Z,16.00
2017-04-05T11:45:42.626Z,16.10
2017-04-05T11:46:42.677Z,16.20
2017-04-05T11:47:42.683Z,16.30
2017-04-05T11:48:42.996Z,16.40
2017-04-05T11:49:42.832Z,16.40
2017-04-05T11:50:42.805Z,16.30
2017-04-05T11:51:42.821Z,16.20
2017-04-05T11:52:43.544Z,16.00
2017-04-05T11:53:43.878Z,15.80
2017-04-05T11:54:44.609Z,15.80
2017-04-05T11:55:44.657Z,15.70
2017-04-05T11:56:44.648Z,15.70
2017-04-05T11:57:44.596Z,15.60
2017-04-05T11:58:45.004Z,15.60
2017-04-05T11:59:45.001Z,15.60
2017-04-05T12:00:44.990Z,15.60
2017-04-05T12:01:44.983Z,15.70
2017-04-05T12:02:44.990Z,15.80
2017-04-05T12:03:45.438Z,15.90
2017-04-05T12:04:45.528Z,16.10
2017-04-05T12:07:12.213Z,16.50
2017-04-05T12:08:12.968Z,16.70
2017-04-05T12:09:13.333Z,16.90
2017-04-05T12:10:13.365Z,17.10
2017-04-05T12:12:13.371Z,17.20
2017-04-05T12:13:13.915Z,17.20
2017-04-05T12:14:14.292Z,17.20
2017-04-05T12:15:15.023Z,17.30
2017-04-05T12:16:15.868Z,17.40
2017-04-05T12:17:15.891Z,17.40
2017-04-05T12:18:15.873Z,17.30
2017-04-05T12:19:16.158Z,17.20
2017-04-05T12:20:16.545Z,17.10
2017-04-05T12:21:16.562Z,17.00
2017-04-05T12:22:16.581Z,17.00
2017-04-05T12:23:16.616Z,16.80
2017-04-05T12:24:17.682Z,16.70
2017-04-05T12:25:18.060Z,16.60
2017-04-05T12:26:18.093Z,16.50
2017-04-05T12:27:18.140Z,16.50
2017-04-05T12:28:18.131Z,16.50
2017-04-05T12:29:18.487Z,16.50
2017-04-05T12:30:18.575Z,16.50
2017-04-05T12:31:18.559Z,16.50
2017-04-05T12:32:18.351Z,16.50
2017-04-05T12:33:18.418Z,16.50
2017-04-05T12:34:18.927Z,16.40
2017-04-05T12:35:19.681Z,16.40
2017-04-05T12:36:19.648Z,16.40
2017-04-05T12:37:19.653Z,16.30
2017-04-05T12:38:19.705Z,16.30
2017-04-05T12:39:20.078Z,16.30
2017-04-05T12:40:20.847Z,16.20
2017-04-05T12:41:20.811Z,16.10
2017-04-05T12:42:21.568Z,16.00
2017-04-05T12:45:21.454Z,15.60
2017-04-05T12:46:21.438Z,15.40
2017-04-05T12:47:21.405Z,15.40
2017-04-05T12:48:21.396Z,15.30
2017-04-05T12:49:21.344Z,15.20
2017-04-05T12:50:21.703Z,15.10
2017-04-05T12:51:21.705Z,15.10
2017-04-05T12:52:21.752Z,15.00
2017-04-05T12:53:21.783Z,14.90
2017-04-05T12:54:21.850Z,14.90
2017-04-05T12:55:22.199Z,14.80
2017-04-05T12:56:22.265Z,14.60
2017-04-05T12:57:22.239Z,14.50
2017-04-05T12:58:22.289Z,14.40
2017-04-05T12:59:22.332Z,14.30
2017-04-05T13:00:22.743Z,14.30
2017-04-05T13:01:24.479Z,14.20
2017-04-05T13:02:24.573Z,14.20
2017-04-05T13:03:24.631Z,14.20
2017-04-05T13:04:25.378Z,14.10
2017-04-05T13:05:25.774Z,14.10
2017-04-05T13:06:26.543Z,14.00
2017-04-05T13:07:27.021Z,14.00
2017-04-05T13:08:26.999Z,13.90
2017-04-05T13:09:27.073Z,13.90
2017-04-05T13:10:27.540Z,13.90
2017-04-05T13:11:28.333Z,13.80
2017-04-05T13:12:31.479Z,13.80
2017-04-05T13:13:31.566Z,13.80
2017-04-05T13:14:32.342Z,13.70
2017-04-05T13:15:32.625Z,13.70
2017-04-05T13:16:32.561Z,13.70
2017-04-05T13:17:32.545Z,13.70
2017-04-05T13:18:32.623Z,13.70